Time;durP1;ratioP1;P1;durP2;ratioP2;P2;SDS_P1;SDS_P2;PMS_P1;PMS_P2;Temp;Humidity;BMP_temperature;BMP_pressure;BME280_temperature;BME280_humidity;BME280_pressure;Samples;Min_cycle;Max_cycle;Signal;HPM_P1;HPM_P2
2021/07/20 00:01:45;;;;;;;5.35;4.93;;;;;;;15.38;64.78;100324.75;10539193;28;20135;-73
2021/07/20 00:06:46;;;;;;;6.57;4.78;;;;;;;15.44;64.10;100310.34;10539951;28;20411;-73
2021/07/20 00:11:48;;;;;;;5.40;4.80;;;;;;;15.54;64.10;100309.00;10521485;28;20457;-74
2021/07/20 00:16:50;;;;;;;7.13;4.90;;;;;;;15.42;65.31;100314.88;10547231;28;20044;-73
2021/07/20 00:21:52;;;;;;;6.35;5.85;;;;;;;15.27;65.21;100314.69;10528009;28;20075;-73
2021/07/20 00:26:53;;;;;;;5.47;5.00;;;;;;;15.31;66.11;100305.63;10546414;28;20047;-74
2021/07/20 00:31:55;;;;;;;7.38;5.28;;;;;;;15.23;66.16;100314.88;10528092;28;20040;-73
2021/07/20 00:36:56;;;;;;;6.07;5.53;;;;;;;15.22;66.56;100308.72;10529773;28;20112;-73
2021/07/20 00:41:58;;;;;;;5.68;5.22;;;;;;;15.18;66.61;100306.28;10527669;28;20048;-74
2021/07/20 00:47:00;;;;;;;6.28;5.68;;;;;;;15.30;65.12;100303.94;10545613;28;20040;-73
2021/07/20 00:52:02;;;;;;;5.82;5.22;;;;;;;15.42;65.56;100306.94;10544272;28;20417;-73
2021/07/20 00:57:04;;;;;;;7.15;4.88;;;;;;;15.36;65.74;100310.72;10529451;28;20028;-73
2021/07/20 01:02:07;;;;;;;5.50;5.00;;;;;;;15.77;64.15;100310.59;10526529;28;20139;-73
2021/07/20 01:07:10;;;;;;;5.55;5.05;;;;;;;15.71;64.66;100310.84;10526399;28;20070;-73
2021/07/20 01:12:14;;;;;;;6.07;5.45;;;;;;;15.74;64.65;100308.06;10543932;28;20050;-73
2021/07/20 01:17:21;;;;;;;5.80;5.20;;;;;;;15.59;65.34;100310.50;10545169;28;20032;-73
2021/07/20 01:22:29;;;;;;;5.75;5.25;;;;;;;15.41;66.67;100326.41;10545112;28;20417;-72
2021/07/20 01:27:32;;;;;;;6.70;6.07;;;;;;;15.23;68.14;100310.47;10525948;28;20051;-73
2021/07/20 01:32:35;;;;;;;5.88;5.38;;;;;;;15.26;68.72;100307.66;10525620;28;20047;-74
2021/07/20 01:37:38;;;;;;;6.22;5.63;;;;;;;15.52;67.02;100309.06;10525393;28;20040;-73
2021/07/20 01:42:45;;;;;;;5.85;5.00;;;;;;;15.33;68.14;100305.59;10527619;28;20412;-73
2021/07/20 01:47:49;;;;;;;6.18;5.57;;;;;;;15.33;67.54;100306.44;10543472;28;20515;-74
2021/07/20 01:52:54;;;;;;;6.00;5.47;;;;;;;15.44;67.36;100313.00;10524812;28;20455;-74
2021/07/20 01:57:56;;;;;;;5.35;4.85;;;;;;;15.55;66.27;100308.94;10555009;22;20066;-70
2021/07/20 02:08:27;;;;;;;6.57;6.00;;;;;;;15.30;69.50;100311.00;10540111;28;20036;-70
2021/07/20 02:13:43;;;;;;;5.95;5.55;;;;;;;15.17;69.59;100308.06;10542528;28;20040;-70
2021/07/20 02:19:27;;;;;;;5.82;5.32;;;;;;;15.34;68.92;100310.81;10525492;28;20063;-70
2021/07/20 02:24:56;;;;;;;6.32;5.43;;;;;;;15.26;70.63;100314.72;10538613;28;20078;-70
2021/07/20 02:30:01;;;;;;;6.00;5.50;;;;;;;15.33;68.62;100310.88;10540639;28;20044;-69
2021/07/20 02:35:05;;;;;;;5.95;5.45;;;;;;;15.40;68.41;100309.63;10520644;28;20052;-70
2021/07/20 02:40:12;;;;;;;5.82;5.43;;;;;;;15.45;68.34;100305.00;10564722;28;20409;-70
2021/07/20 02:45:17;;;;;;;5.38;4.90;;;;;;;15.46;68.27;100306.72;10564816;28;20043;-70
2021/07/20 02:50:22;;;;;;;6.25;5.68;;;;;;;15.34;69.01;100304.66;10563745;28;20039;-70
2021/07/20 02:55:40;;;;;;;6.28;5.78;;;;;;;15.33;69.19;100316.19;10582250;28;20042;-70
2021/07/20 03:00:43;;;;;;;6.13;5.50;;;;;;;15.21;67.76;100314.09;10582084;28;20058;-70
2021/07/20 03:05:47;;;;;;;5.80;5.22;;;;;;;15.21;68.04;100314.09;10581545;28;20070;-71
2021/07/20 03:10:57;;;;;;;5.15;4.75;;;;;;;15.23;68.87;100313.09;10564445;28;20111;-70
2021/07/20 03:16:04;;;;;;;6.07;5.57;;;;;;;15.21;68.56;100311.44;10563875;28;20076;-71
2021/07/20 03:21:07;;;;;;;6.00;5.40;;;;;;;15.26;68.48;100314.72;10564167;28;20101;-71
2021/07/20 03:26:11;;;;;;;5.50;4.97;;;;;;;15.32;68.45;100301.22;10563404;28;20114;-71
2021/07/20 03:31:15;;;;;;;7.60;5.45;;;;;;;15.24;67.93;100298.94;10564307;28;20043;-70
2021/07/20 03:36:19;;;;;;;5.18;4.75;;;;;;;15.33;67.71;100309.09;10581502;28;20464;-70
2021/07/20 03:41:26;;;;;;;5.80;5.30;;;;;;;15.31;67.77;100300.34;10563608;28;20043;-70
2021/07/20 03:46:29;;;;;;;6.18;5.65;;;;;;;15.29;67.25;100306.66;10582302;28;20454;-71
2021/07/20 03:51:32;;;;;;;5.78;5.38;;;;;;;15.29;66.98;100301.34;10588938;28;20040;-70
2021/07/20 03:56:36;;;;;;;6.22;5.45;;;;;;;15.42;67.37;100309.59;10570957;28;20048;-70
2021/07/20 04:01:38;;;;;;;5.68;5.15;;;;;;;15.35;68.22;100309.84;10572199;28;20523;-70
2021/07/20 04:06:42;;;;;;;6.32;5.72;;;;;;;15.36;67.53;100305.41;10572319;28;20480;-70
2021/07/20 04:11:53;;;;;;;5.95;5.35;;;;;;;15.42;67.76;100307.78;10591821;28;20089;-70
2021/07/20 04:17:04;;;;;;;11.38;6.38;;;;;;;15.45;66.72;100305.00;10590179;28;20393;-70
2021/07/20 04:22:06;;;;;;;5.90;5.28;;;;;;;15.55;67.18;100313.38;10572164;28;20504;-72
2021/07/20 04:27:08;;;;;;;6.35;5.85;;;;;;;15.52;67.74;100311.72;10574764;28;20118;-70
2021/07/20 04:32:13;;;;;;;9.93;6.65;;;;;;;15.55;67.33;100313.38;10589519;28;20409;-70
2021/07/20 04:37:18;;;;;;;8.95;6.00;;;;;;;15.64;66.90;100305.00;10573140;28;20066;-71
2021/07/20 04:42:25;;;;;;;5.93;5.43;;;;;;;15.67;67.09;100309.28;10592254;28;20433;-70
2021/07/20 04:47:26;;;;;;;7.55;6.85;;;;;;;15.66;67.95;100319.03;10592358;28;20040;-71
2021/07/20 04:52:36;;;;;;;10.18;5.78;;;;;;;15.77;66.66;100321.19;10576364;28;20052;-71
2021/07/20 04:57:44;;;;;;;6.63;6.03;;;;;;;15.86;66.25;100318.94;10574282;28;20040;-72
2021/07/20 05:02:47;;;;;;;7.97;7.03;;;;;;;15.82;66.87;100330.63;10574692;28;20039;-70
2021/07/20 05:07:52;;;;;;;7.97;6.05;;;;;;;15.99;66.96;100335.09;10591976;28;20043;-70
2021/07/20 05:12:58;;;;;;;;;;;;;;;16.14;67.14;100344.06;10577491;28;20121;-70
2021/07/20 05:18:02;;;;;;;7.95;7.25;;;;;;;16.25;66.66;100341.75;10572521;28;19920;-70
2021/07/20 05:23:06;;;;;;;8.40;6.35;;;;;;;16.25;66.50;100348.88;10592971;28;20043;-71
2021/07/20 05:28:12;;;;;;;7.85;6.22;;;;;;;16.23;66.20;100345.41;10583320;28;20067;-70
2021/07/20 05:33:20;;;;;;;7.90;5.95;;;;;;;16.65;65.04;100350.34;10578535;28;20054;-71
2021/07/20 05:38:35;;;;;;;6.13;5.53;;;;;;;16.76;62.76;100355.97;10564135;28;20035;-71
2021/07/20 05:44:03;;;;;;;7.72;5.95;;;;;;;16.77;63.59;100356.81;10596270;28;20035;-70
2021/07/20 05:49:10;;;;;;;10.98;6.63;;;;;;;16.79;64.89;100361.13;10576102;28;20477;-70
2021/07/20 05:54:16;;;;;;;7.45;6.22;;;;;;;16.75;64.82;100362.22;10579092;28;20048;-70
2021/07/20 05:59:38;;;;;;;6.68;5.50;;;;;;;17.08;62.64;100361.38;10592888;28;20043;-72
2021/07/20 06:04:46;;;;;;;5.50;5.00;;;;;;;16.76;63.18;100371.03;10572939;28;20062;-71
2021/07/20 06:09:50;;;;;;;5.45;4.95;;;;;;;16.90;63.79;100366.72;10571055;28;20126;-70
2021/07/20 06:14:54;;;;;;;6.88;5.40;;;;;;;17.06;62.55;100371.22;10585904;28;20075;-71
2021/07/20 06:19:56;;;;;;;5.18;4.68;;;;;;;17.49;61.71;100367.13;10568806;28;20051;-71
2021/07/20 06:25:00;;;;;;;5.55;3.97;;;;;;;17.21;59.25;100366.88;10588575;28;20065;-70
2021/07/20 06:30:05;;;;;;;4.43;4.03;;;;;;;17.54;59.48;100361.53;10586846;28;20078;-70
2021/07/20 06:35:16;;;;;;;4.25;3.83;;;;;;;17.51;60.44;100370.53;10588422;28;20109;-72
2021/07/20 06:40:20;;;;;;;6.05;4.10;;;;;;;17.90;60.97;100370.13;10588721;28;20075;-71
2021/07/20 06:45:22;;;;;;;9.20;4.30;;;;;;;18.08;59.30;100383.34;10587386;28;20039;-70
2021/07/20 06:50:24;;;;;;;3.75;3.40;;;;;;;17.70;56.71;100380.13;10568756;28;20133;-70
2021/07/20 06:55:27;;;;;;;9.10;2.50;;;;;;;17.85;55.32;100379.34;10586616;28;20062;-72
2021/07/20 07:00:30;;;;;;;2.33;2.13;;;;;;;18.01;55.66;100388.13;10566638;28;20054;-70
2021/07/20 07:05:33;;;;;;;4.75;2.85;;;;;;;18.28;53.27;100384.84;10586126;28;20046;-71
2021/07/20 07:10:37;;;;;;;2.92;2.58;;;;;;;18.29;53.75;100389.22;10584819;28;20043;-70
2021/07/20 07:15:39;;;;;;;3.95;2.83;;;;;;;18.20;55.55;100393.28;10585909;28;20463;-71
2021/07/20 07:20:43;;;;;;;3.95;2.50;;;;;;;18.51;54.84;100389.69;10585712;28;20046;-71
2021/07/20 07:25:54;;;;;;;3.85;2.50;;;;;;;18.84;52.51;100384.16;10567208;28;20503;-70
2021/07/20 07:30:56;;;;;;;3.60;2.55;;;;;;;19.37;53.28;100389.81;10550867;28;20052;-70
2021/07/20 07:35:58;;;;;;;3.20;2.60;;;;;;;19.49;52.72;100386.38;10586720;28;20134;-71
2021/07/20 07:41:02;;;;;;;5.60;2.55;;;;;;;19.33;53.06;100380.31;10583842;28;20439;-72
2021/07/20 07:46:05;;;;;;;2.92;2.60;;;;;;;18.67;52.52;100393.13;10582591;28;20560;-71
2021/07/20 07:51:08;;;;;;;3.00;2.42;;;;;;;18.39;52.91;100391.25;10564403;28;20044;-71
2021/07/20 07:56:11;;;;;;;3.20;2.45;;;;;;;18.52;54.21;100393.19;10581837;28;20040;-71
2021/07/20 08:01:14;;;;;;;4.75;2.50;;;;;;;19.01;54.46;100388.47;10564405;28;20050;-72
2021/07/20 08:06:20;;;;;;;4.38;2.72;;;;;;;19.16;53.85;100392.84;10582943;28;20088;-71
2021/07/20 08:11:45;;;;;;;3.83;3.13;;;;;;;19.44;52.03;100392.97;10563177;28;20497;-71
2021/07/20 08:16:52;;;;;;;4.60;3.40;;;;;;;19.55;53.88;100393.13;10582148;28;20046;-71
2021/07/20 08:22:00;;;;;;;4.35;3.50;;;;;;;19.45;52.69;100394.69;10581827;28;20080;-71
2021/07/20 08:27:18;;;;;;;5.05;3.10;;;;;;;19.13;54.50;100394.88;10582104;28;20157;-71
2021/07/20 08:32:23;;;;;;;3.00;2.70;;;;;;;18.78;53.05;100399.69;10580928;28;20046;-69
2021/07/20 08:37:29;;;;;;;3.25;2.50;;;;;;;18.92;52.92;100397.03;10586820;28;20047;-72
2021/07/20 08:42:48;;;;;;;3.28;2.78;;;;;;;19.12;52.36;100394.03;10571389;28;20042;-70
2021/07/20 08:48:07;;;;;;;4.18;3.03;;;;;;;19.00;53.44;100404.56;10589601;28;20044;-71
2021/07/20 08:53:35;;;;;;;4.25;2.75;;;;;;;19.39;53.99;100394.13;10571461;28;20046;-72
2021/07/20 08:58:47;;;;;;;4.57;3.42;;;;;;;18.73;53.93;100401.75;10588148;28;20126;-71
2021/07/20 09:04:11;;;;;;;3.90;3.22;;;;;;;19.10;55.03;100400.38;10586932;28;20046;-70
2021/07/20 09:09:21;;;;;;;5.97;3.08;;;;;;;19.28;54.07;100401.06;10587118;28;20504;-70
2021/07/20 09:14:22;;;;;;;4.07;3.50;;;;;;;19.41;53.93;100394.84;10568412;28;20040;-72
2021/07/20 09:19:28;;;;;;;3.90;3.35;;;;;;;20.30;52.65;100402.50;10585944;28;20035;-70
2021/07/20 09:24:43;;;;;;;4.00;3.60;;;;;;;20.88;49.59;100398.59;10585939;28;20476;-71
2021/07/20 09:29:47;;;;;;;3.75;2.90;;;;;;;20.78;47.35;100396.66;10585834;28;20046;-70
2021/07/20 09:35:00;;;;;;;3.38;2.45;;;;;;;20.33;45.49;100393.44;10584986;28;20051;-72
2021/07/20 09:40:34;;;;;;;3.30;2.22;;;;;;;20.70;48.71;100391.84;10566609;28;20142;-70
2021/07/20 09:45:44;;;;;;;6.15;1.98;;;;;;;21.67;43.21;100377.91;10584778;28;20449;-71
2021/07/20 09:50:46;;;;;;;2.58;2.17;;;;;;;21.67;43.55;100370.75;10566510;28;20045;-70
2021/07/20 09:56:26;;;;;;;2.13;1.92;;;;;;;21.40;42.56;100373.59;10549330;28;20043;-70
2021/07/20 10:01:36;;;;;;;4.15;2.03;;;;;;;21.51;45.12;100359.44;10584474;28;20066;-71
2021/07/20 10:06:56;;;;;;;4.00;2.67;;;;;;;22.39;40.92;100351.16;10585220;28;20046;-71
2021/07/20 10:12:01;;;;;;;2.90;2.60;;;;;;;22.64;41.84;100351.00;10584109;28;20046;-71
2021/07/20 10:17:25;;;;;;;2.95;2.22;;;;;;;21.87;40.30;100347.03;10583293;28;20062;-70
2021/07/20 10:22:36;;;;;;;2.45;2.25;;;;;;;22.71;41.83;100347.84;10584169;28;20051;-71
2021/07/20 10:27:59;;;;;;;3.63;3.25;;;;;;;22.10;41.91;100348.00;10582940;28;20468;-71
2021/07/20 10:33:25;;;;;;;2.65;2.45;;;;;;;21.74;43.13;100352.44;10564307;28;20047;-70
2021/07/20 10:38:42;;;;;;;3.72;2.90;;;;;;;21.60;43.28;100356.13;10582730;28;20487;-71
2021/07/20 10:43:57;;;;;;;4.18;3.10;;;;;;;21.48;42.16;100353.47;10583128;28;20408;-69
2021/07/20 10:49:21;;;;;;;3.85;3.17;;;;;;;20.98;43.75;100361.38;10602184;27;20435;-70
2021/07/20 10:54:28;;;;;;;4.18;3.22;;;;;;;20.27;46.79;100367.13;10587102;27;20114;-71
2021/07/20 11:00:09;;;;;;;3.50;3.17;;;;;;;20.30;46.21;100365.13;10624482;27;20055;-70
2021/07/20 11:05:11;;;;;;;4.68;3.75;;;;;;;20.33;48.04;100364.91;10580923;28;20036;-71
2021/07/20 11:10:22;;;;;;;3.88;3.58;;;;;;;20.57;46.34;100357.09;10582272;28;20044;-70
2021/07/20 11:15:27;;;;;;;3.88;3.58;;;;;;;20.84;45.55;100367.69;10562776;28;20382;-71
2021/07/20 11:20:30;;;;;;;3.50;3.17;;;;;;;21.10;45.28;100370.38;10581140;28;20077;-71
2021/07/20 11:25:33;;;;;;;4.53;3.40;;;;;;;21.24;46.98;100364.03;10582196;28;20100;-70
2021/07/20 11:30:38;;;;;;;5.65;4.38;;;;;;;20.95;48.41;100368.78;10582318;28;20040;-71
2021/07/20 11:35:44;;;;;;;6.65;3.88;;;;;;;20.91;46.94;100368.13;10581113;28;20039;-72
2021/07/20 11:40:53;;;;;;;4.07;3.73;;;;;;;20.94;46.62;100365.25;10579395;28;20202;-71
2021/07/20 11:46:24;;;;;;;4.32;3.92;;;;;;;20.78;47.10;100372.63;10582187;28;20051;-71
2021/07/20 11:51:31;;;;;;;5.10;4.60;;;;;;;20.69;49.30;100376.78;10578324;28;20138;-71
2021/07/20 11:57:11;;;;;;;5.13;4.65;;;;;;;20.44;48.50;100382.03;10601503;28;20050;-71
2021/07/20 12:02:54;;;;;;;5.22;4.72;;;;;;;20.00;50.61;100380.50;10593885;28;20039;-70
2021/07/20 12:08:06;;;;;;;5.15;4.68;;;;;;;20.28;49.86;100382.22;10623677;27;20042;-70
2021/07/20 12:13:09;;;;;;;6.80;4.72;;;;;;;20.17;49.51;100372.22;10630902;27;20136;-70
2021/07/20 12:18:10;;;;;;;5.47;4.97;;;;;;;20.64;48.08;100373.56;10631574;27;20047;-70
2021/07/20 12:23:13;;;;;;;6.53;4.90;;;;;;;20.76;48.96;100362.03;10630239;27;20047;-70
2021/07/20 12:28:14;;;;;;;5.28;4.78;;;;;;;20.55;49.53;100366.19;10613674;27;20194;-70
2021/07/20 12:33:16;;;;;;;7.82;4.82;;;;;;;20.97;48.87;100362.34;10587553;28;20054;-70
2021/07/20 12:38:23;;;;;;;5.78;4.22;;;;;;;21.47;48.28;100359.75;10588831;28;20109;-71
2021/07/20 12:43:27;;;;;;;4.82;4.40;;;;;;;21.44;45.97;100352.81;10569739;28;20093;-70
2021/07/20 12:48:30;;;;;;;4.70;4.22;;;;;;;21.34;46.17;100349.13;10570986;28;20489;-72
2021/07/20 12:53:32;;;;;;;4.75;4.32;;;;;;;20.96;48.10;100347.28;10585065;28;20112;-70
2021/07/20 12:58:34;;;;;;;7.28;4.28;;;;;;;21.19;48.15;100352.81;10568775;28;20123;-72
2021/07/20 13:03:36;;;;;;;4.38;3.85;;;;;;;21.22;47.18;100350.81;10587573;28;20054;-71
2021/07/20 13:08:38;;;;;;;5.78;4.30;;;;;;;20.71;48.55;100357.97;10587571;28;20380;-71
2021/07/20 13:13:42;;;;;;;5.05;3.83;;;;;;;20.64;49.31;100370.91;10587098;28;20044;-70
2021/07/20 13:18:48;;;;;;;3.92;3.53;;;;;;;20.75;49.58;100362.13;10568521;28;20050;-70
2021/07/20 13:23:57;;;;;;;5.30;4.80;;;;;;;20.58;49.54;100357.94;10587497;28;20050;-70
2021/07/20 13:29:01;;;;;;;4.28;3.88;;;;;;;20.64;49.04;100349.53;10587983;28;20047;-70
2021/07/20 13:34:05;;;;;;;4.63;4.15;;;;;;;20.82;47.59;100356.25;10585907;28;20043;-70
2021/07/20 13:39:11;;;;;;;4.03;3.65;;;;;;;20.43;49.02;100359.81;10588479;28;20512;-71
2021/07/20 13:44:14;;;;;;;6.32;3.97;;;;;;;20.05;49.56;100359.69;10587300;28;20409;-71
2021/07/20 13:49:22;;;;;;;7.15;3.92;;;;;;;19.90;50.50;100354.41;10587054;28;20123;-71
2021/07/20 13:54:26;;;;;;;4.32;3.67;;;;;;;20.24;50.56;100354.00;10586123;28;20040;-70
2021/07/20 13:59:35;;;;;;;5.47;3.67;;;;;;;20.50;48.65;100358.47;10570210;22;20485;-67
2021/07/20 14:04:36;;;;;;;4.40;4.00;;;;;;;20.33;49.17;100356.06;10460162;28;20041;-68
2021/07/20 14:09:39;;;;;;;4.65;4.15;;;;;;;20.87;47.95;100353.28;10459338;28;20559;-68
2021/07/20 14:14:42;;;;;;;4.47;3.53;;;;;;;21.31;46.96;100354.63;10459145;28;20045;-68
2021/07/20 14:19:45;;;;;;;5.55;3.90;;;;;;;21.37;47.93;100356.91;10442074;28;20037;-67
2021/07/20 14:24:46;;;;;;;5.68;3.83;;;;;;;21.48;46.18;100351.66;10442768;28;20178;-67
2021/07/20 14:29:49;;;;;;;4.45;3.95;;;;;;;21.64;46.66;100352.22;10440928;28;20060;-68
2021/07/20 14:34:59;;;;;;;5.05;3.70;;;;;;;21.14;48.89;100343.31;10459141;28;20059;-68
2021/07/20 14:40:19;;;;;;;4.10;3.60;;;;;;;20.69;47.63;100343.88;10460421;28;20047;-68
2021/07/20 14:45:24;;;;;;;4.40;2.83;;;;;;;20.89;46.94;100346.88;10460324;28;20049;-68
2021/07/20 14:50:40;;;;;;;7.22;3.72;;;;;;;20.68;46.77;100350.19;10458137;28;20037;-68
2021/07/20 14:55:47;;;;;;;;;;;;;;;20.81;45.85;100348.38;10443537;28;20485;-68
2021/07/20 15:00:51;;;;;;;4.97;4.13;;;;;;;20.74;47.17;100349.75;10458263;28;20386;-67
2021/07/20 15:05:55;;;;;;;4.22;3.92;;;;;;;20.96;47.63;100349.97;10458913;28;20072;-66
2021/07/20 15:11:13;;;;;;;5.47;4.93;;;;;;;21.13;45.77;100346.09;10457603;28;20036;-67
2021/07/20 15:16:20;;;;;;;3.75;3.45;;;;;;;20.94;47.06;100351.91;10440172;28;20056;-67
2021/07/20 15:21:23;;;;;;;4.95;3.80;;;;;;;21.13;46.23;100352.31;10458097;28;20116;-67
2021/07/20 15:26:25;;;;;;;4.13;3.80;;;;;;;20.79;46.51;100358.28;10458108;28;20129;-67
2021/07/20 15:31:27;;;;;;;7.32;4.30;;;;;;;21.01;46.76;100355.84;10457342;28;20041;-67
2021/07/20 15:36:30;;;;;;;4.15;3.67;;;;;;;20.91;46.07;100352.09;10458779;28;20051;-68
2021/07/20 15:41:34;;;;;;;4.30;3.90;;;;;;;21.02;45.87;100360.22;10459230;28;20037;-68
2021/07/20 15:46:38;;;;;;;4.80;3.40;;;;;;;20.96;46.35;100357.13;10447403;28;20045;-67
2021/07/20 15:51:40;;;;;;;6.03;4.10;;;;;;;20.95;46.76;100355.44;10465242;28;20041;-67
2021/07/20 15:56:42;;;;;;;5.15;3.45;;;;;;;20.75;47.73;100346.94;10464817;28;20044;-67
2021/07/20 16:01:45;;;;;;;6.07;4.53;;;;;;;21.20;45.54;100349.19;10465028;28;20036;-69
2021/07/20 16:06:47;;;;;;;5.03;3.30;;;;;;;21.16;44.83;100341.41;10464043;28;20171;-66
2021/07/20 16:11:49;;;;;;;5.93;3.65;;;;;;;21.03;45.05;100356.59;10462139;28;20044;-68
2021/07/20 16:16:50;;;;;;;4.90;3.45;;;;;;;20.84;46.61;100346.31;10464036;28;20426;-67
2021/07/20 16:21:52;;;;;;;5.45;3.75;;;;;;;20.89;46.54;100354.91;10445693;28;20103;-67
2021/07/20 16:26:54;;;;;;;3.58;3.28;;;;;;;20.74;45.38;100347.91;10464378;28;20049;-67
2021/07/20 16:31:56;;;;;;;3.65;3.30;;;;;;;20.74;47.06;100355.94;10463960;28;20037;-67
2021/07/20 16:37:12;;;;;;;5.53;3.28;;;;;;;20.38;46.35;100353.94;10465201;28;20044;-67
2021/07/20 16:42:14;;;;;;;6.45;2.90;;;;;;;20.22;46.27;100356.75;10463207;28;20053;-67
2021/07/20 16:47:17;;;;;;;4.28;2.90;;;;;;;20.03;47.17;100359.81;10445942;28;20048;-69
2021/07/20 16:52:18;;;;;;;4.47;3.10;;;;;;;20.32;47.44;100359.66;10445167;28;20520;-68
2021/07/20 16:57:29;;;;;;;3.92;2.70;;;;;;;20.21;46.40;100367.56;10462225;28;20088;-69
2021/07/20 17:02:31;;;;;;;3.63;2.45;;;;;;;19.82;46.85;100358.53;10462115;28;20040;-69
2021/07/20 17:07:33;;;;;;;4.13;2.47;;;;;;;19.65;46.89;100364.94;10463221;28;20649;-68
2021/07/20 17:12:35;;;;;;;4.75;4.35;;;;;;;19.97;47.33;100362.03;10462423;28;20059;-68
2021/07/20 17:17:36;;;;;;;3.80;3.50;;;;;;;20.15;46.59;100359.00;10463775;28;20053;-69
2021/07/20 17:22:39;;;;;;;3.70;2.70;;;;;;;20.19;45.74;100366.78;10463140;28;20127;-69
2021/07/20 17:27:42;;;;;;;3.35;3.05;;;;;;;20.06;47.55;100370.28;10444693;28;20059;-68
2021/07/20 17:32:44;;;;;;;5.13;2.95;;;;;;;20.41;46.94;100365.28;10463406;28;20060;-69
2021/07/20 17:37:48;;;;;;;5.15;2.70;;;;;;;20.05;46.19;100365.88;10461741;28;20064;-69
2021/07/20 17:42:56;;;;;;;5.07;2.50;;;;;;;20.05;46.85;100362.34;10440907;28;20072;-70
2021/07/20 17:47:59;;;;;;;5.57;2.70;;;;;;;19.88;46.09;100366.16;10460020;28;20041;-69
2021/07/20 17:53:00;;;;;;;4.45;2.40;;;;;;;19.60;46.85;100367.03;10441457;28;20064;-67
2021/07/20 17:58:04;;;;;;;2.75;2.08;;;;;;;19.74;45.79;100366.16;10460425;28;20500;-69
2021/07/20 18:03:05;;;;;;;5.07;2.50;;;;;;;19.46;47.65;100367.91;10461226;28;20468;-68
2021/07/20 18:08:07;;;;;;;2.58;1.88;;;;;;;19.36;47.42;100369.44;10459277;28;20045;-68
2021/07/20 18:13:09;;;;;;;3.72;2.97;;;;;;;19.37;48.05;100377.34;10442507;28;20044;-67
2021/07/20 18:18:11;;;;;;;3.30;1.90;;;;;;;19.31;49.24;100377.75;10460470;28;20133;-67
2021/07/20 18:23:16;;;;;;;2.22;2.03;;;;;;;19.22;49.42;100386.31;10442221;28;20068;-68
2021/07/20 18:28:17;;;;;;;2.55;2.22;;;;;;;19.14;49.39;100384.13;10459057;28;20208;-68
2021/07/20 18:33:20;;;;;;;2.55;1.98;;;;;;;19.10;49.82;100387.91;10458473;28;20099;-68
2021/07/20 18:38:22;;;;;;;3.15;2.50;;;;;;;19.02;50.74;100386.66;10459237;28;20041;-69
2021/07/20 18:43:24;;;;;;;2.90;2.28;;;;;;;18.88;51.13;100396.34;10460682;28;20029;-69
2021/07/20 18:48:26;;;;;;;3.45;2.20;;;;;;;18.89;51.65;100402.53;10461490;28;20071;-69
2021/07/20 18:53:27;;;;;;;3.08;2.25;;;;;;;18.87;52.03;100404.44;10461210;28;20079;-69
2021/07/20 18:58:29;;;;;;;8.20;2.40;;;;;;;18.88;52.34;100419.47;10461569;28;20507;-68
2021/07/20 19:03:31;;;;;;;3.55;2.13;;;;;;;18.78;52.94;100428.97;10460242;28;20043;-70
2021/07/20 19:08:33;;;;;;;7.68;2.13;;;;;;;18.44;53.53;100432.72;10440708;28;20048;-68
2021/07/20 19:13:35;;;;;;;2.63;2.22;;;;;;;18.16;54.07;100431.66;10458969;28;20144;-67
2021/07/20 19:18:37;;;;;;;3.63;2.17;;;;;;;18.15;54.95;100444.09;10458402;28;20120;-67
2021/07/20 19:23:39;;;;;;;2.45;1.90;;;;;;;17.98;55.37;100446.84;10441089;28;20120;-69
2021/07/20 19:28:41;;;;;;;3.60;2.47;;;;;;;18.14;55.28;100457.47;10460394;28;20056;-70
2021/07/20 19:33:42;;;;;;;5.10;2.20;;;;;;;18.06;56.07;100454.38;10458528;28;20195;-69
2021/07/20 19:38:44;;;;;;;3.67;2.55;;;;;;;18.18;55.51;100463.47;10458511;28;20122;-69
2021/07/20 19:43:46;;;;;;;5.65;2.60;;;;;;;17.90;56.57;100468.53;10458402;28;20120;-70
2021/07/20 19:48:48;;;;;;;2.75;2.17;;;;;;;17.42;58.95;100477.34;10458682;28;20053;-68
2021/07/20 19:53:51;;;;;;;8.95;2.90;;;;;;;17.48;58.09;100478.81;10457634;28;20119;-69
2021/07/20 19:58:52;;;;;;;4.20;2.70;;;;;;;17.61;57.67;100486.03;10478720;22;20047;-70
2021/07/20 20:03:54;;;;;;;2.65;2.38;;;;;;;17.57;58.69;100486.28;10487892;28;20489;-71
2021/07/20 20:08:56;;;;;;;3.47;3.10;;;;;;;17.29;59.33;100490.41;10511289;28;20087;-72
2021/07/20 20:13:58;;;;;;;8.73;3.45;;;;;;;17.20;59.82;100488.22;10486726;28;20041;-71
2021/07/20 20:18:59;;;;;;;3.65;2.42;;;;;;;16.93;60.49;100498.47;10485904;28;20040;-72
2021/07/20 20:24:01;;;;;;;5.32;3.00;;;;;;;16.72;61.46;100491.56;10486904;28;20498;-72
2021/07/20 20:29:03;;;;;;;4.47;4.07;;;;;;;16.72;60.92;100503.06;10490118;28;20553;-72
2021/07/20 20:34:04;;;;;;;7.25;4.03;;;;;;;16.65;61.35;100501.63;10512453;28;20032;-72
2021/07/20 20:39:06;;;;;;;3.85;3.28;;;;;;;16.59;61.06;100501.91;10512373;28;20075;-71
2021/07/20 20:44:08;;;;;;;3.22;2.50;;;;;;;16.50;61.53;100508.53;10512767;28;20040;-71
2021/07/20 20:49:10;;;;;;;4.13;2.47;;;;;;;16.59;61.08;100505.44;10513810;28;20067;-71
2021/07/20 20:54:11;;;;;;;5.13;2.45;;;;;;;16.65;60.76;100505.16;10513109;28;20041;-71
2021/07/20 20:59:14;;;;;;;4.78;2.90;;;;;;;16.67;60.83;100512.16;10511778;28;20051;-71
2021/07/20 21:04:16;;;;;;;8.40;2.75;;;;;;;16.59;61.24;100521.34;10512522;28;20036;-71
2021/07/20 21:09:19;;;;;;;3.50;2.35;;;;;;;16.46;61.33;100517.56;10511839;28;20048;-72
2021/07/20 21:14:21;;;;;;;3.90;2.63;;;;;;;16.35;61.93;100517.25;10512158;28;20071;-72
2021/07/20 21:19:23;;;;;;;2.95;2.30;;;;;;;16.34;61.88;100521.69;10515311;28;20139;-72
2021/07/20 21:24:25;;;;;;;3.90;2.83;;;;;;;16.36;61.69;100527.78;10508528;28;20596;-71
2021/07/20 21:29:27;;;;;;;2.95;2.50;;;;;;;16.31;61.92;100524.50;10508935;28;20131;-72
2021/07/20 21:34:28;;;;;;;3.35;2.40;;;;;;;16.14;62.52;100527.06;10509228;28;20485;-71
2021/07/20 21:39:30;;;;;;;3.72;2.67;;;;;;;16.29;62.19;100531.66;10492210;28;20462;-70
2021/07/20 21:44:31;;;;;;;3.85;2.83;;;;;;;16.18;62.56;100539.25;10508571;28;20036;-72
2021/07/20 21:49:34;;;;;;;7.30;3.10;;;;;;;16.04;63.57;100539.06;10492225;28;20497;-72
2021/07/20 21:54:36;;;;;;;3.97;2.78;;;;;;;15.99;63.50;100541.06;10490222;28;20051;-74
2021/07/20 21:59:39;;;;;;;8.18;3.10;;;;;;;16.07;63.87;100546.84;10509378;28;20050;-72
2021/07/20 22:04:41;;;;;;;4.05;2.58;;;;;;;15.85;64.40;100549.66;10490478;28;20056;-72
2021/07/20 22:09:44;;;;;;;7.43;2.60;;;;;;;16.02;63.47;100547.06;10505925;28;20044;-71
2021/07/20 22:14:46;;;;;;;2.90;2.40;;;;;;;15.94;64.16;100545.69;10508087;28;20041;-72
2021/07/20 22:19:48;;;;;;;3.03;2.05;;;;;;;16.13;62.60;100550.09;10508204;28;20127;-72
2021/07/20 22:24:49;;;;;;;3.35;2.10;;;;;;;16.25;61.96;100545.16;10488596;28;20056;-71
2021/07/20 22:29:51;;;;;;;3.38;2.08;;;;;;;16.25;62.09;100543.34;10507819;28;20086;-71
2021/07/20 22:34:52;;;;;;;5.50;1.90;;;;;;;16.35;61.48;100549.09;10489347;28;20068;-71
2021/07/20 22:39:54;;;;;;;3.20;1.98;;;;;;;16.17;62.11;100547.31;10508214;28;20048;-72
2021/07/20 22:44:56;;;;;;;3.05;2.28;;;;;;;16.07;62.94;100552.16;10507649;28;20067;-71
2021/07/20 22:49:57;;;;;;;3.60;2.33;;;;;;;15.91;63.88;100549.34;10488578;28;20074;-72
2021/07/20 22:54:59;;;;;;;3.63;2.35;;;;;;;15.80;64.07;100556.91;10506089;28;20044;-70
2021/07/20 23:00:08;;;;;;;5.60;2.00;;;;;;;15.74;65.24;100557.22;10506856;28;20045;-71
2021/07/20 23:05:12;;;;;;;2.22;2.05;;;;;;;15.81;64.94;100559.53;10507025;28;20047;-71
2021/07/20 23:10:18;;;;;;;3.40;2.30;;;;;;;15.93;64.63;100566.03;10506790;28;20048;-70
2021/07/20 23:15:20;;;;;;;3.25;2.53;;;;;;;16.14;63.69;100562.41;10508629;28;20135;-70
2021/07/20 23:20:22;;;;;;;2.80;2.40;;;;;;;16.00;64.77;100550.72;10489125;28;20055;-71
2021/07/20 23:25:25;;;;;;;9.20;2.78;;;;;;;16.22;63.04;100550.59;10507847;28;20371;-70
2021/07/20 23:30:29;;;;;;;3.25;2.10;;;;;;;16.18;64.33;100554.31;10507078;28;20048;-70